sensor_id;sensor_type;location;lat;lon;timestamp;pressure;altitude;pressure_sealevel;temperature;humidity
16355;BME280;8287;51.644;8.494;2023-04-03T00:00:37;101754.78;;;5.00;70.43
16355;BME280;8287;51.644;8.494;2023-04-03T00:03:04;101758.75;;;5.02;70.34
16355;BME280;8287;51.644;8.494;2023-04-03T00:05:31;101760.59;;;5.02;69.93
16355;BME280;8287;51.644;8.494;2023-04-03T00:07:57;101774.28;;;5.04;70.23
16355;BME280;8287;51.644;8.494;2023-04-03T00:10:24;101765.94;;;5.07;69.92
16355;BME280;8287;51.644;8.494;2023-04-03T00:12:52;101763.91;;;5.09;69.71
16355;BME280;8287;51.644;8.494;2023-04-03T00:15:19;101766.28;;;5.10;69.61
16355;BME280;8287;51.644;8.494;2023-04-03T00:17:45;101770.19;;;5.08;69.61
16355;BME280;8287;51.644;8.494;2023-04-03T00:20:12;101770.63;;;5.05;69.56
16355;BME280;8287;51.644;8.494;2023-04-03T00:22:39;101763.00;;;5.03;69.57
16355;BME280;8287;51.644;8.494;2023-04-03T00:25:07;101767.78;;;5.06;69.57
16355;BME280;8287;51.644;8.494;2023-04-03T00:27:35;101769.84;;;5.04;69.31
16355;BME280;8287;51.644;8.494;2023-04-03T00:30:05;101766.06;;;5.00;70.15
16355;BME280;8287;51.644;8.494;2023-04-03T00:32:32;101771.25;;;4.95;70.23
16355;BME280;8287;51.644;8.494;2023-04-03T00:34:59;101774.78;;;5.01;69.72
16355;BME280;8287;51.644;8.494;2023-04-03T00:37:25;101768.84;;;4.94;70.33
16355;BME280;8287;51.644;8.494;2023-04-03T00:39:52;101771.69;;;4.92;70.29
16355;BME280;8287;51.644;8.494;2023-04-03T00:42:19;101778.00;;;4.80;70.41
16355;BME280;8287;51.644;8.494;2023-04-03T00:45:24;101775.03;;;4.65;71.12
16355;BME280;8287;51.644;8.494;2023-04-03T00:47:51;101767.97;;;4.77;70.94
16355;BME280;8287;51.644;8.494;2023-04-03T00:50:18;101775.72;;;4.72;70.56
16355;BME280;8287;51.644;8.494;2023-04-03T00:52:45;101782.69;;;4.78;70.63
16355;BME280;8287;51.644;8.494;2023-04-03T00:55:15;101780.06;;;4.78;70.39
16355;BME280;8287;51.644;8.494;2023-04-03T00:57:42;101775.63;;;4.78;70.33
16355;BME280;8287;51.644;8.494;2023-04-03T01:00:11;101780.06;;;4.78;70.79
16355;BME280;8287;51.644;8.494;2023-04-03T01:02:40;101792.16;;;4.79;70.23
16355;BME280;8287;51.644;8.494;2023-04-03T01:05:07;101791.47;;;4.72;70.49
16355;BME280;8287;51.644;8.494;2023-04-03T01:07:35;101787.25;;;4.71;70.92
16355;BME280;8287;51.644;8.494;2023-04-03T01:10:04;101784.53;;;4.66;70.84
16355;BME280;8287;51.644;8.494;2023-04-03T01:12:35;101789.66;;;4.61;70.82
16355;BME280;8287;51.644;8.494;2023-04-03T01:15:04;101785.44;;;4.60;71.06
16355;BME280;8287;51.644;8.494;2023-04-03T01:17:34;101784.53;;;4.54;71.33
16355;BME280;8287;51.644;8.494;2023-04-03T01:23:14;101789.88;;;4.48;71.53
16355;BME280;8287;51.644;8.494;2023-04-03T01:25:45;101789.31;;;4.46;71.40
16355;BME280;8287;51.644;8.494;2023-04-03T01:28:15;101788.06;;;4.48;71.66
16355;BME280;8287;51.644;8.494;2023-04-03T01:30:46;101787.03;;;4.38;71.55
16355;BME280;8287;51.644;8.494;2023-04-03T01:33:16;101792.25;;;4.38;71.89
16355;BME280;8287;51.644;8.494;2023-04-03T01:35:43;101791.56;;;4.31;72.21
16355;BME280;8287;51.644;8.494;2023-04-03T01:38:09;101789.19;;;4.29;72.35
16355;BME280;8287;51.644;8.494;2023-04-03T01:40:36;101784.97;;;4.28;72.39
16355;BME280;8287;51.644;8.494;2023-04-03T01:43:03;101790.91;;;4.24;72.07
16355;BME280;8287;51.644;8.494;2023-04-03T01:45:29;101790.88;;;4.12;72.08
16355;BME280;8287;51.644;8.494;2023-04-03T01:47:56;101795.06;;;4.02;72.86
16355;BME280;8287;51.644;8.494;2023-04-03T01:50:24;101791.88;;;4.00;73.58
16355;BME280;8287;51.644;8.494;2023-04-03T01:52:51;101806.03;;;3.99;73.70
16355;BME280;8287;51.644;8.494;2023-04-03T01:55:18;101801.09;;;3.91;73.72
16355;BME280;8287;51.644;8.494;2023-04-03T01:57:44;101804.28;;;3.93;74.39
16355;BME280;8287;51.644;8.494;2023-04-03T02:00:12;101798.34;;;3.86;74.78
16355;BME280;8287;51.644;8.494;2023-04-03T02:02:39;101799.13;;;3.75;74.77
16355;BME280;8287;51.644;8.494;2023-04-03T02:05:06;101804.94;;;3.77;75.22
16355;BME280;8287;51.644;8.494;2023-04-03T02:07:34;101805.25;;;3.69;75.11
16355;BME280;8287;51.644;8.494;2023-04-03T02:10:01;101806.13;;;3.63;75.51
16355;BME280;8287;51.644;8.494;2023-04-03T02:12:27;101811.66;;;3.55;75.77
16355;BME280;8287;51.644;8.494;2023-04-03T02:14:54;101814.75;;;3.52;75.96
16355;BME280;8287;51.644;8.494;2023-04-03T02:17:21;101808.00;;;3.44;75.73
16355;BME280;8287;51.644;8.494;2023-04-03T02:19:47;101812.16;;;3.34;75.95
16355;BME280;8287;51.644;8.494;2023-04-03T02:22:14;101811.34;;;3.33;76.33
16355;BME280;8287;51.644;8.494;2023-04-03T02:24:42;101810.56;;;3.33;76.49
16355;BME280;8287;51.644;8.494;2023-04-03T02:27:09;101812.28;;;3.21;76.11
16355;BME280;8287;51.644;8.494;2023-04-03T02:29:36;101821.19;;;3.20;76.48
16355;BME280;8287;51.644;8.494;2023-04-03T02:32:03;101817.63;;;3.14;76.94
16355;BME280;8287;51.644;8.494;2023-04-03T02:34:30;101821.34;;;3.07;77.08
16355;BME280;8287;51.644;8.494;2023-04-03T02:36:56;101819.75;;;3.06;77.22
16355;BME280;8287;51.644;8.494;2023-04-03T02:39:23;101820.09;;;3.09;77.00
16355;BME280;8287;51.644;8.494;2023-04-03T02:41:51;101811.25;;;3.11;76.89
16355;BME280;8287;51.644;8.494;2023-04-03T02:44:18;101813.19;;;3.15;76.96
16355;BME280;8287;51.644;8.494;2023-04-03T02:46:44;101817.81;;;3.13;76.69
16355;BME280;8287;51.644;8.494;2023-04-03T02:49:11;101820.44;;;3.13;76.98
16355;BME280;8287;51.644;8.494;2023-04-03T02:51:38;101830.91;;;3.13;76.86
16355;BME280;8287;51.644;8.494;2023-04-03T02:54:05;101827.94;;;3.09;77.06
16355;BME280;8287;51.644;8.494;2023-04-03T02:56:32;101832.22;;;3.04;76.69
16355;BME280;8287;51.644;8.494;2023-04-03T02:59:00;101833.41;;;2.90;77.10
16355;BME280;8287;51.644;8.494;2023-04-03T03:01:27;101833.63;;;2.89;76.89
16355;BME280;8287;51.644;8.494;2023-04-03T03:03:56;101829.47;;;2.81;77.15
16355;BME280;8287;51.644;8.494;2023-04-03T03:06:23;101826.31;;;2.73;77.18
16355;BME280;8287;51.644;8.494;2023-04-03T03:08:50;101825.38;;;2.67;77.94
16355;BME280;8287;51.644;8.494;2023-04-03T03:11:16;101822.31;;;2.70;78.22
16355;BME280;8287;51.644;8.494;2023-04-03T03:13:43;101822.19;;;2.65;78.69
16355;BME280;8287;51.644;8.494;2023-04-03T03:16:11;101820.13;;;2.67;78.75
16355;BME280;8287;51.644;8.494;2023-04-03T03:18:38;101817.41;;;2.56;78.33
16355;BME280;8287;51.644;8.494;2023-04-03T03:21:05;101819.84;;;2.57;78.44
16355;BME280;8287;51.644;8.494;2023-04-03T03:23:32;101828.38;;;2.46;78.28
16355;BME280;8287;51.644;8.494;2023-04-03T03:26:00;101836.56;;;2.56;79.27
16355;BME280;8287;51.644;8.494;2023-04-03T03:28:28;101832.38;;;2.49;79.04
16355;BME280;8287;51.644;8.494;2023-04-03T03:30:54;101839.44;;;2.48;79.02
16355;BME280;8287;51.644;8.494;2023-04-03T03:33:22;101832.25;;;2.37;78.64
16355;BME280;8287;51.644;8.494;2023-04-03T03:35:51;101832.06;;;2.39;79.38
16355;BME280;8287;51.644;8.494;2023-04-03T03:38:18;101831.47;;;2.37;79.41
16355;BME280;8287;51.644;8.494;2023-04-03T03:40:46;101829.88;;;2.36;79.59
16355;BME280;8287;51.644;8.494;2023-04-03T03:43:13;101831.31;;;2.32;79.59
16355;BME280;8287;51.644;8.494;2023-04-03T03:45:40;101832.38;;;2.24;79.83
16355;BME280;8287;51.644;8.494;2023-04-03T03:48:06;101834.75;;;2.26;80.22
16355;BME280;8287;51.644;8.494;2023-04-03T03:50:34;101837.81;;;2.23;79.96
16355;BME280;8287;51.644;8.494;2023-04-03T03:53:01;101840.75;;;2.08;79.25
16355;BME280;8287;51.644;8.494;2023-04-03T03:55:27;101831.31;;;2.07;79.90
16355;BME280;8287;51.644;8.494;2023-04-03T03:57:54;101840.31;;;2.11;80.89
16355;BME280;8287;51.644;8.494;2023-04-03T04:00:21;101840.44;;;1.92;80.04
16355;BME280;8287;51.644;8.494;2023-04-03T04:02:47;101841.03;;;1.94;80.38
16355;BME280;8287;51.644;8.494;2023-04-03T04:05:14;101844.03;;;1.97;81.13
16355;BME280;8287;51.644;8.494;2023-04-03T04:07:42;101849.06;;;1.92;80.68
16355;BME280;8287;51.644;8.494;2023-04-03T04:10:09;101847.44;;;1.98;80.88
16355;BME280;8287;51.644;8.494;2023-04-03T04:12:36;101846.03;;;1.95;80.79
16355;BME280;8287;51.644;8.494;2023-04-03T04:15:03;101842.06;;;1.86;80.80
16355;BME280;8287;51.644;8.494;2023-04-03T04:17:30;101849.06;;;1.92;80.94
16355;BME280;8287;51.644;8.494;2023-04-03T04:19:56;101848.50;;;1.90;81.24
16355;BME280;8287;51.644;8.494;2023-04-03T04:22:23;101852.38;;;1.81;80.75
16355;BME280;8287;51.644;8.494;2023-04-03T04:24:51;101848.91;;;1.87;81.46
16355;BME280;8287;51.644;8.494;2023-04-03T04:27:18;101849.97;;;1.80;80.90
16355;BME280;8287;51.644;8.494;2023-04-03T04:29:44;101855.13;;;1.86;80.94
16355;BME280;8287;51.644;8.494;2023-04-03T04:32:11;101852.56;;;1.80;80.80
16355;BME280;8287;51.644;8.494;2023-04-03T04:34:37;101863.84;;;1.74;81.00
16355;BME280;8287;51.644;8.494;2023-04-03T04:37:04;101862.69;;;1.63;80.84
16355;BME280;8287;51.644;8.494;2023-04-03T04:39:31;101858.66;;;1.67;80.82
16355;BME280;8287;51.644;8.494;2023-04-03T04:41:59;101870.72;;;1.68;81.14
16355;BME280;8287;51.644;8.494;2023-04-03T04:44:25;101865.47;;;1.68;81.63
16355;BME280;8287;51.644;8.494;2023-04-03T04:46:52;101867.53;;;1.60;81.47
16355;BME280;8287;51.644;8.494;2023-04-03T04:49:19;101881.19;;;1.62;81.28
16355;BME280;8287;51.644;8.494;2023-04-03T04:51:45;101878.59;;;1.62;81.03
16355;BME280;8287;51.644;8.494;2023-04-03T04:54:12;101881.59;;;1.59;81.04
16355;BME280;8287;51.644;8.494;2023-04-03T04:56:39;101888.84;;;1.57;80.95
16355;BME280;8287;51.644;8.494;2023-04-03T04:59:07;101877.41;;;1.51;81.57
16355;BME280;8287;51.644;8.494;2023-04-03T05:01:33;101890.03;;;1.54;81.74
16355;BME280;8287;51.644;8.494;2023-04-03T05:04:01;101882.44;;;1.53;81.66
16355;BME280;8287;51.644;8.494;2023-04-03T05:06:27;101891.69;;;1.55;81.45
16355;BME280;8287;51.644;8.494;2023-04-03T05:08:55;101878.66;;;1.42;81.23
16355;BME280;8287;51.644;8.494;2023-04-03T05:11:22;101888.69;;;1.45;81.82
16355;BME280;8287;51.644;8.494;2023-04-03T05:13:48;101894.88;;;1.51;81.74
16355;BME280;8287;51.644;8.494;2023-04-03T05:16:16;101898.75;;;1.35;81.18
16355;BME280;8287;51.644;8.494;2023-04-03T05:18:43;101894.50;;;1.41;81.77
16355;BME280;8287;51.644;8.494;2023-04-03T05:21:09;101895.91;;;1.43;81.31
16355;BME280;8287;51.644;8.494;2023-04-03T05:23:36;101893.38;;;1.30;81.32
16355;BME280;8287;51.644;8.494;2023-04-03T05:26:03;101906.41;;;1.37;81.50
16355;BME280;8287;51.644;8.494;2023-04-03T05:28:29;101900.78;;;1.33;81.76
16355;BME280;8287;51.644;8.494;2023-04-03T05:30:57;101900.78;;;1.33;81.63
16355;BME280;8287;51.644;8.494;2023-04-03T05:33:26;101907.38;;;1.42;81.95
16355;BME280;8287;51.644;8.494;2023-04-03T05:35:52;101907.38;;;1.42;81.92
16355;BME280;8287;51.644;8.494;2023-04-03T05:38:19;101905.34;;;1.44;82.07
16355;BME280;8287;51.644;8.494;2023-04-03T05:40:46;101909.34;;;1.53;81.87
16355;BME280;8287;51.644;8.494;2023-04-03T05:43:13;101912.53;;;1.62;81.76
16355;BME280;8287;51.644;8.494;2023-04-03T05:45:40;101912.09;;;1.71;81.15
16355;BME280;8287;51.644;8.494;2023-04-03T05:48:07;101918.69;;;1.80;81.12
16355;BME280;8287;51.644;8.494;2023-04-03T05:50:35;101918.88;;;1.85;80.85
16355;BME280;8287;51.644;8.494;2023-04-03T05:53:08;101921.25;;;1.93;80.91
16355;BME280;8287;51.644;8.494;2023-04-03T05:55:41;101925.41;;;2.01;80.28
16355;BME280;8287;51.644;8.494;2023-04-03T05:58:07;101926.41;;;2.06;80.07
16355;BME280;8287;51.644;8.494;2023-04-03T06:00:34;101936.88;;;2.06;80.16
16355;BME280;8287;51.644;8.494;2023-04-03T06:03:00;101930.19;;;2.10;79.80
16355;BME280;8287;51.644;8.494;2023-04-03T06:05:27;101935.63;;;2.15;80.17
16355;BME280;8287;51.644;8.494;2023-04-03T06:07:55;101941.38;;;2.24;79.77
16355;BME280;8287;51.644;8.494;2023-04-03T06:10:22;101933.38;;;2.19;79.72
16355;BME280;8287;51.644;8.494;2023-04-03T06:12:49;101942.41;;;2.23;80.43
16355;BME280;8287;51.644;8.494;2023-04-03T06:15:16;101942.97;;;2.31;80.35
16355;BME280;8287;51.644;8.494;2023-04-03T06:17:43;101940.34;;;2.31;79.84
16355;BME280;8287;51.644;8.494;2023-04-03T06:20:10;101947.56;;;2.29;79.47
16355;BME280;8287;51.644;8.494;2023-04-03T06:22:37;101948.53;;;2.41;79.43
16355;BME280;8287;51.644;8.494;2023-04-03T06:25:06;101945.56;;;2.31;79.11
16355;BME280;8287;51.644;8.494;2023-04-03T06:27:34;101953.91;;;2.46;78.83
16355;BME280;8287;51.644;8.494;2023-04-03T06:30:01;101962.22;;;2.68;78.58
16355;BME280;8287;51.644;8.494;2023-04-03T06:32:27;101955.34;;;2.73;77.98
16355;BME280;8287;51.644;8.494;2023-04-03T06:34:54;101967.56;;;2.79;78.17
16355;BME280;8287;51.644;8.494;2023-04-03T06:37:22;101965.31;;;2.83;77.17
16355;BME280;8287;51.644;8.494;2023-04-03T06:39:51;101970.19;;;2.79;77.33
16355;BME280;8287;51.644;8.494;2023-04-03T06:42:19;101973.72;;;2.91;77.43
16355;BME280;8287;51.644;8.494;2023-04-03T06:44:46;101976.78;;;3.13;77.03
16355;BME280;8287;51.644;8.494;2023-04-03T06:47:14;101979.13;;;3.20;76.49
16355;BME280;8287;51.644;8.494;2023-04-03T06:49:41;101971.00;;;3.28;75.53
16355;BME280;8287;51.644;8.494;2023-04-03T06:52:08;101988.31;;;3.29;75.11
16355;BME280;8287;51.644;8.494;2023-04-03T06:54:35;101977.97;;;3.34;74.82
16355;BME280;8287;51.644;8.494;2023-04-03T06:57:01;101980.44;;;3.29;74.10
16355;BME280;8287;51.644;8.494;2023-04-03T06:59:30;101985.09;;;3.27;74.33
16355;BME280;8287;51.644;8.494;2023-04-03T07:01:56;101985.25;;;3.32;74.12
16355;BME280;8287;51.644;8.494;2023-04-03T07:04:24;101986.22;;;3.56;74.40
16355;BME280;8287;51.644;8.494;2023-04-03T07:06:50;101982.72;;;3.62;74.42
16355;BME280;8287;51.644;8.494;2023-04-03T07:09:17;101998.88;;;3.95;73.98
16355;BME280;8287;51.644;8.494;2023-04-03T07:11:44;101986.38;;;4.26;73.05
16355;BME280;8287;51.644;8.494;2023-04-03T07:14:11;101991.81;;;4.43;71.59
16355;BME280;8287;51.644;8.494;2023-04-03T07:16:39;101984.34;;;4.58;70.67
16355;BME280;8287;51.644;8.494;2023-04-03T07:19:05;101993.44;;;4.96;70.08
16355;BME280;8287;51.644;8.494;2023-04-03T07:21:33;101987.72;;;4.88;68.58
16355;BME280;8287;51.644;8.494;2023-04-03T07:24:00;101999.81;;;4.89;67.04
16355;BME280;8287;51.644;8.494;2023-04-03T07:26:27;101992.66;;;5.30;67.07
16355;BME280;8287;51.644;8.494;2023-04-03T07:28:53;102000.91;;;5.34;65.17
16355;BME280;8287;51.644;8.494;2023-04-03T07:31:20;102002.84;;;5.38;64.74
16355;BME280;8287;51.644;8.494;2023-04-03T07:33:48;102004.09;;;5.59;65.20
16355;BME280;8287;51.644;8.494;2023-04-03T07:36:17;101984.66;;;5.60;64.23
16355;BME280;8287;51.644;8.494;2023-04-03T07:38:44;102007.28;;;5.84;63.91
16355;BME280;8287;51.644;8.494;2023-04-03T07:41:12;102014.47;;;6.28;63.75
16355;BME280;8287;51.644;8.494;2023-04-03T07:43:40;102009.19;;;6.00;61.66
16355;BME280;8287;51.644;8.494;2023-04-03T07:46:07;102012.59;;;6.12;61.42
16355;BME280;8287;51.644;8.494;2023-04-03T07:48:34;102004.28;;;6.31;61.27
16355;BME280;8287;51.644;8.494;2023-04-03T07:51:04;102006.84;;;6.54;60.99
16355;BME280;8287;51.644;8.494;2023-04-03T07:53:31;102020.81;;;6.43;59.11
16355;BME280;8287;51.644;8.494;2023-04-03T07:55:58;102011.25;;;6.81;61.56
16355;BME280;8287;51.644;8.494;2023-04-03T07:58:25;102005.84;;;6.88;59.15
16355;BME280;8287;51.644;8.494;2023-04-03T08:00:52;102005.81;;;6.71;57.64
16355;BME280;8287;51.644;8.494;2023-04-03T08:03:19;102008.16;;;6.84;58.76
16355;BME280;8287;51.644;8.494;2023-04-03T08:05:47;102011.41;;;7.24;57.23
16355;BME280;8287;51.644;8.494;2023-04-03T08:08:18;102012.03;;;7.31;56.46
16355;BME280;8287;51.644;8.494;2023-04-03T08:10:48;102016.44;;;7.42;56.39
16355;BME280;8287;51.644;8.494;2023-04-03T08:13:15;102018.75;;;7.22;56.23
16355;BME280;8287;51.644;8.494;2023-04-03T08:15:41;102021.78;;;7.47;57.92
16355;BME280;8287;51.644;8.494;2023-04-03T08:18:08;102023.88;;;7.45;56.96
16355;BME280;8287;51.644;8.494;2023-04-03T08:20:35;102016.66;;;7.79;57.46
16355;BME280;8287;51.644;8.494;2023-04-03T08:23:02;102019.69;;;7.87;56.09
16355;BME280;8287;51.644;8.494;2023-04-03T08:25:30;102020.22;;;7.68;54.73
16355;BME280;8287;51.644;8.494;2023-04-03T08:27:56;102019.78;;;8.14;54.93
16355;BME280;8287;51.644;8.494;2023-04-03T08:30:23;102015.34;;;7.76;51.03
16355;BME280;8287;51.644;8.494;2023-04-03T08:32:50;102017.72;;;7.99;50.77
16355;BME280;8287;51.644;8.494;2023-04-03T08:35:17;102011.34;;;7.95;50.97
16355;BME280;8287;51.644;8.494;2023-04-03T08:37:45;102009.03;;;7.99;50.70
16355;BME280;8287;51.644;8.494;2023-04-03T08:40:14;102021.22;;;7.83;49.62
16355;BME280;8287;51.644;8.494;2023-04-03T08:42:51;102020.59;;;7.38;46.52
16355;BME280;8287;51.644;8.494;2023-04-03T08:45:26;102010.53;;;7.35;47.28
16355;BME280;8287;51.644;8.494;2023-04-03T08:48:00;102023.47;;;7.53;49.46
16355;BME280;8287;51.644;8.494;2023-04-03T08:50:33;102019.09;;;7.42;49.36
16355;BME280;8287;51.644;8.494;2023-04-03T08:53:03;102011.56;;;7.72;50.08
16355;BME280;8287;51.644;8.494;2023-04-03T08:55:33;102019.19;;;7.90;48.85
16355;BME280;8287;51.644;8.494;2023-04-03T08:58:04;102016.97;;;7.82;46.80
16355;BME280;8287;51.644;8.494;2023-04-03T09:00:37;102012.00;;;7.64;46.75
16355;BME280;8287;51.644;8.494;2023-04-03T09:03:12;102014.28;;;7.77;47.99
16355;BME280;8287;51.644;8.494;2023-04-03T09:05:41;102014.31;;;7.99;47.88
16355;BME280;8287;51.644;8.494;2023-04-03T09:08:16;102008.91;;;8.10;45.15
16355;BME280;8287;51.644;8.494;2023-04-03T09:10:45;102008.38;;;7.49;46.75
16355;BME280;8287;51.644;8.494;2023-04-03T09:13:22;102005.88;;;7.80;46.00
16355;BME280;8287;51.644;8.494;2023-04-03T09:15:51;102008.09;;;8.31;47.07
16355;BME280;8287;51.644;8.494;2023-04-03T09:18:21;102006.69;;;8.45;44.70
16355;BME280;8287;51.644;8.494;2023-04-03T09:20:55;102013.94;;;8.60;44.70
16355;BME280;8287;51.644;8.494;2023-04-03T09:23:27;102003.88;;;8.30;43.93
16355;BME280;8287;51.644;8.494;2023-04-03T09:26:01;102009.56;;;7.79;46.35
16355;BME280;8287;51.644;8.494;2023-04-03T09:28:33;102007.34;;;7.71;46.11
16355;BME280;8287;51.644;8.494;2023-04-03T09:31:03;102011.91;;;7.97;45.78
16355;BME280;8287;51.644;8.494;2023-04-03T09:33:35;102013.13;;;8.11;45.01
16355;BME280;8287;51.644;8.494;2023-04-03T09:36:02;102005.16;;;8.06;46.05
16355;BME280;8287;51.644;8.494;2023-04-03T09:38:29;101998.47;;;7.99;46.20
16355;BME280;8287;51.644;8.494;2023-04-03T09:41:04;102000.41;;;8.08;44.62
16355;BME280;8287;51.644;8.494;2023-04-03T09:43:34;101999.44;;;8.14;44.67
16355;BME280;8287;51.644;8.494;2023-04-03T09:46:17;102000.69;;;8.07;44.66
16355;BME280;8287;51.644;8.494;2023-04-03T09:48:50;101999.72;;;8.34;44.13
16355;BME280;8287;51.644;8.494;2023-04-03T09:51:17;101996.59;;;8.42;45.08
16355;BME280;8287;51.644;8.494;2023-04-03T09:53:44;101984.44;;;8.68;44.38
16355;BME280;8287;51.644;8.494;2023-04-03T09:56:20;101987.97;;;8.78;45.14
16355;BME280;8287;51.644;8.494;2023-04-03T09:58:50;101985.50;;;8.67;43.64
16355;BME280;8287;51.644;8.494;2023-04-03T10:01:26;101994.03;;;8.04;42.72
16355;BME280;8287;51.644;8.494;2023-04-03T10:04:05;102004.47;;;8.16;42.24
16355;BME280;8287;51.644;8.494;2023-04-03T10:06:34;101992.16;;;8.21;44.49
16355;BME280;8287;51.644;8.494;2023-04-03T10:09:09;101982.88;;;7.97;43.44
16355;BME280;8287;51.644;8.494;2023-04-03T10:11:57;101982.53;;;8.15;44.09
16355;BME280;8287;51.644;8.494;2023-04-03T10:14:26;101973.19;;;8.51;44.31
16355;BME280;8287;51.644;8.494;2023-04-03T10:16:56;101987.69;;;8.48;44.79
16355;BME280;8287;51.644;8.494;2023-04-03T10:19:34;101977.44;;;8.83;43.13
16355;BME280;8287;51.644;8.494;2023-04-03T10:22:08;101975.75;;;8.72;43.88
16355;BME280;8287;51.644;8.494;2023-04-03T10:24:48;101971.13;;;8.58;44.16
16355;BME280;8287;51.644;8.494;2023-04-03T10:27:25;101969.38;;;9.00;44.45
16355;BME280;8287;51.644;8.494;2023-04-03T10:30:03;101971.09;;;9.16;43.58
16355;BME280;8287;51.644;8.494;2023-04-03T10:32:46;101960.50;;;9.16;43.30
16355;BME280;8287;51.644;8.494;2023-04-03T10:35:20;101961.47;;;9.46;42.65
16355;BME280;8287;51.644;8.494;2023-04-03T10:38:01;101959.44;;;9.63;43.66
16355;BME280;8287;51.644;8.494;2023-04-03T10:40:33;101949.06;;;10.03;42.58
16355;BME280;8287;51.644;8.494;2023-04-03T10:43:08;101946.47;;;10.43;42.07
16355;BME280;8287;51.644;8.494;2023-04-03T10:45:53;101948.09;;;10.69;43.02
16355;BME280;8287;51.644;8.494;2023-04-03T10:48:33;101945.44;;;10.74;41.25
16355;BME280;8287;51.644;8.494;2023-04-03T10:51:12;101951.47;;;10.24;39.77
16355;BME280;8287;51.644;8.494;2023-04-03T10:53:44;101952.16;;;9.39;39.95
16355;BME280;8287;51.644;8.494;2023-04-03T10:56:19;101952.16;;;9.39;41.83
16355;BME280;8287;51.644;8.494;2023-04-03T10:58:54;101951.81;;;9.20;41.44
16355;BME280;8287;51.644;8.494;2023-04-03T11:01:26;101953.28;;;9.06;42.66
16355;BME280;8287;51.644;8.494;2023-04-03T11:03:58;101951.69;;;8.69;42.57
16355;BME280;8287;51.644;8.494;2023-04-03T11:06:30;101939.59;;;9.14;43.54
16355;BME280;8287;51.644;8.494;2023-04-03T11:09:02;101940.34;;;9.56;41.76
16355;BME280;8287;51.644;8.494;2023-04-03T11:11:34;101932.09;;;10.09;41.71
16355;BME280;8287;51.644;8.494;2023-04-03T11:14:03;101941.69;;;9.59;41.59
16355;BME280;8287;51.644;8.494;2023-04-03T11:16:36;101943.84;;;9.67;42.29
16355;BME280;8287;51.644;8.494;2023-04-03T11:19:13;101943.06;;;9.71;43.38
16355;BME280;8287;51.644;8.494;2023-04-03T11:21:43;101949.28;;;9.40;41.16
16355;BME280;8287;51.644;8.494;2023-04-03T11:24:17;101940.41;;;9.66;42.42
16355;BME280;8287;51.644;8.494;2023-04-03T11:26:48;101935.28;;;10.16;42.31
16355;BME280;8287;51.644;8.494;2023-04-03T11:29:21;101931.09;;;10.60;42.36
16355;BME280;8287;51.644;8.494;2023-04-03T11:32:05;101940.94;;;10.49;39.12
16355;BME280;8287;51.644;8.494;2023-04-03T11:34:38;101925.22;;;10.03;40.84
16355;BME280;8287;51.644;8.494;2023-04-03T11:37:13;101922.63;;;10.63;42.07
16355;BME280;8287;51.644;8.494;2023-04-03T11:39:49;101919.44;;;10.91;41.57
16355;BME280;8287;51.644;8.494;2023-04-03T11:42:25;101921.56;;;10.79;40.60
16355;BME280;8287;51.644;8.494;2023-04-03T11:48:00;101918.88;;;11.14;40.86
16355;BME280;8287;51.644;8.494;2023-04-03T11:50:40;101919.41;;;11.06;40.93
16355;BME280;8287;51.644;8.494;2023-04-03T11:53:28;101916.78;;;10.96;40.43
16355;BME280;8287;51.644;8.494;2023-04-03T11:55:57;101914.69;;;10.48;40.57
16355;BME280;8287;51.644;8.494;2023-04-03T11:58:26;101920.66;;;9.98;39.84
16355;BME280;8287;51.644;8.494;2023-04-03T12:01:02;101915.06;;;9.85;41.81
16355;BME280;8287;51.644;8.494;2023-04-03T12:06:50;101907.22;;;10.10;42.62
16355;BME280;8287;51.644;8.494;2023-04-03T12:12:33;101889.50;;;10.50;42.19
16355;BME280;8287;51.644;8.494;2023-04-03T12:15:23;101895.59;;;10.66;41.30
16355;BME280;8287;51.644;8.494;2023-04-03T12:17:50;101887.97;;;11.48;40.81
16355;BME280;8287;51.644;8.494;2023-04-03T12:20:51;101883.63;;;11.77;41.13
16355;BME280;8287;51.644;8.494;2023-04-03T12:23:28;101882.34;;;11.69;40.09
16355;BME280;8287;51.644;8.494;2023-04-03T12:26:04;101879.50;;;11.46;38.96
16355;BME280;8287;51.644;8.494;2023-04-03T12:28:39;101872.88;;;11.48;40.14
16355;BME280;8287;51.644;8.494;2023-04-03T12:31:08;101881.88;;;11.57;38.64
16355;BME280;8287;51.644;8.494;2023-04-03T12:33:49;101874.75;;;11.96;39.37
16355;BME280;8287;51.644;8.494;2023-04-03T12:36:29;101870.59;;;11.80;39.07
16355;BME280;8287;51.644;8.494;2023-04-03T12:39:05;101877.78;;;11.75;38.85
16355;BME280;8287;51.644;8.494;2023-04-03T12:41:43;101875.66;;;11.77;40.39
16355;BME280;8287;51.644;8.494;2023-04-03T12:44:35;101857.41;;;12.09;39.38
16355;BME280;8287;51.644;8.494;2023-04-03T12:47:18;101862.50;;;11.47;39.38
16355;BME280;8287;51.644;8.494;2023-04-03T12:49:49;101847.50;;;12.19;40.91
16355;BME280;8287;51.644;8.494;2023-04-03T12:52:21;101860.50;;;12.21;39.79
16355;BME280;8287;51.644;8.494;2023-04-03T12:54:51;101849.13;;;12.44;40.10
16355;BME280;8287;51.644;8.494;2023-04-03T12:57:19;101850.50;;;12.70;39.34
16355;BME280;8287;51.644;8.494;2023-04-03T12:59:46;101838.03;;;12.94;39.77
16355;BME280;8287;51.644;8.494;2023-04-03T13:02:21;101834.03;;;13.19;38.62
16355;BME280;8287;51.644;8.494;2023-04-03T13:04:49;101839.56;;;13.23;38.87
16355;BME280;8287;51.644;8.494;2023-04-03T13:07:28;101840.31;;;13.28;37.44
16355;BME280;8287;51.644;8.494;2023-04-03T13:10:03;101834.41;;;13.31;37.34
16355;BME280;8287;51.644;8.494;2023-04-03T13:12:30;101832.56;;;13.50;38.76
16355;BME280;8287;51.644;8.494;2023-04-03T13:15:00;101829.69;;;13.28;37.76
16355;BME280;8287;51.644;8.494;2023-04-03T13:17:29;101832.84;;;13.07;36.72
16355;BME280;8287;51.644;8.494;2023-04-03T13:20:10;101826.25;;;12.76;39.07
16355;BME280;8287;51.644;8.494;2023-04-03T13:22:39;101834.44;;;12.23;39.66
16355;BME280;8287;51.644;8.494;2023-04-03T13:25:11;101836.28;;;12.27;39.63
16355;BME280;8287;51.644;8.494;2023-04-03T13:27:39;101834.47;;;12.18;38.38
16355;BME280;8287;51.644;8.494;2023-04-03T13:30:20;101824.81;;;12.32;40.05
16355;BME280;8287;51.644;8.494;2023-04-03T13:32:47;101817.66;;;12.27;38.05
16355;BME280;8287;51.644;8.494;2023-04-03T13:35:39;101832.75;;;11.98;39.86